Paducah, Texas
Current Conditions -  °F | °C
As of 2:53 AM on Thursday 23 Oct 2014 (Local Time) from KCDS Reporting Station
Moderate Fog Moderate Fog  
Wind Chill: 61°   Ceiling: 200
Heat Index: 61°   Visibility: 0.25mi
Dew Point: 60°   Wind: 5mph
Humidity: 97%   Direction: 200°SSW
Pressure: 30.12"   Gusts: NA
Location:  34.01°N, 100.3°W
Report Text: KCDS 230753Z AUTO 20004KT 1/4SM FG VV002 16/16 A3012 RMK AO2 SLP184 T01610156
Loading
Personal Weather Stations






























Interactive Weather Map
Tropical Storm Tracking
New forecast layout! Learn more

10-Day Weather Forecast

Advertisements
Track Severe Weather on mobile